الصفحة الرئيسية
METAR-TAF:

METAR-TAF

مطار :

Pointe-à-Pitre, جوادلوب

دائرة عرض: 16-16N, خط طول: 061-31W, ارتفاع: 11 متر

مراقبة الطقس الحالي

تاريخ ووقت الإصدار 33 دقيقة قبل الساعة 03:30UTC
ريح 4 عقدة من الشرق
درجة الحرارة 22°درجة مئوية
الرطوبة 78%
ضغط 1019 hPa
الرؤية 10 كم أو أكثر
غيوم قليلة على ارتفاع 3400 قدم

METAR: TFFR 240330Z AUTO 09004KT 9999 FEW034 22/18 Q1019

زمن: 00:03 (04:03 UTC)

توقعات

تاريخ ووقت الإصدار 12ساعات و 3 دقيقة قبل الساعة 16:00UTC
التوقعات صالحة من23 الساعة 18 UTC إلى 24 الساعة 18 UTC
ريح 14 عقدة من الشرق
الرؤية 10 كم أو أكثر
غيوم متفرقة على ارتفاع 4000 قدم

TAF: TFFR 231600Z 2318/2418 08014KT 9999 SCT040

أرصاد الطقس والتوقعات من أكثر من 4000 مطار (تقارير الطقس للمطار METAR والتنبؤ بالطقس بالمطارTAF).

المحطات المتاحة هي النقط الصفراء والحمراء على الخريطة.

حرك المؤشر فوق النقطة لمعرفة اسم المحطة.

ثم انقر لمعرفة أرصاد وتوقعات الطقس.

لتغيير الخارطة: اضغط على الأزرار الخضراء مع رمز الصليب الأسود للتكبير. على الزر الأخضر مع شرطة للتصغير، أو على الأسهم الخضراء للخرائط المجاورة.


METAR-TAF: